createdAt,value
2023-04-07T00:01:25.654Z,10.30
2023-04-07T00:03:52.578Z,7.10
2023-04-07T00:06:19.510Z,7.20
2023-04-07T00:08:46.230Z,7.50
2023-04-07T00:11:12.982Z,7.15
2023-04-07T00:13:39.728Z,7.50
2023-04-07T00:16:06.602Z,7.20
2023-04-07T00:18:33.374Z,6.38
2023-04-07T00:21:00.678Z,7.63
2023-04-07T00:23:27.396Z,8.25
2023-04-07T00:25:54.189Z,7.15
2023-04-07T00:28:20.974Z,7.00
2023-04-07T00:30:47.700Z,6.93
2023-04-07T00:33:14.455Z,7.07
2023-04-07T00:35:41.284Z,6.80
2023-04-07T00:38:08.036Z,6.47
2023-04-07T00:40:34.784Z,6.50
2023-04-07T00:43:01.455Z,6.45
2023-04-07T00:45:28.377Z,5.85
2023-04-07T00:47:57.882Z,9.00
2023-04-07T00:50:25.135Z,6.65
2023-04-07T00:52:52.046Z,6.82
2023-04-07T00:55:18.785Z,6.90
2023-04-07T00:57:46.732Z,7.05
2023-04-07T01:00:13.797Z,6.70
2023-04-07T01:02:52.027Z,6.90
2023-04-07T01:05:30.998Z,6.63
2023-04-07T01:08:23.226Z,6.13
2023-04-07T01:10:58.781Z,6.43
2023-04-07T01:13:52.223Z,6.53
2023-04-07T01:16:32.294Z,6.68
2023-04-07T01:19:08.881Z,7.30
2023-04-07T01:21:37.869Z,5.40
2023-04-07T01:24:27.216Z,6.78
2023-04-07T01:27:01.148Z,6.60
2023-04-07T01:29:47.889Z,7.20
2023-04-07T01:32:16.840Z,5.50
2023-04-07T01:34:46.136Z,6.40
2023-04-07T01:37:14.337Z,6.07
2023-04-07T01:39:41.138Z,6.05
2023-04-07T01:42:08.968Z,6.22
2023-04-07T01:44:36.670Z,6.38
2023-04-07T01:47:04.444Z,6.35
2023-04-07T01:49:32.166Z,5.45
2023-04-07T01:52:00.292Z,6.18
2023-04-07T01:54:28.222Z,7.18
2023-04-07T01:56:54.869Z,5.40
2023-04-07T01:59:21.691Z,5.28
2023-04-07T02:01:48.689Z,6.55
2023-04-07T02:04:39.070Z,4.90
2023-04-07T02:07:12.780Z,6.13
2023-04-07T02:09:41.569Z,6.53
2023-04-07T02:12:11.639Z,5.47
2023-04-07T02:14:38.941Z,5.53
2023-04-07T02:17:06.641Z,5.57
2023-04-07T02:19:35.920Z,5.38
2023-04-07T02:22:06.900Z,5.82
2023-04-07T02:24:33.733Z,5.07
2023-04-07T02:27:02.386Z,5.85
2023-04-07T02:29:29.124Z,5.45
2023-04-07T02:31:56.408Z,5.55
2023-04-07T02:34:23.212Z,5.57
2023-04-07T02:36:49.994Z,5.88
2023-04-07T02:39:16.808Z,6.18
2023-04-07T02:41:43.512Z,5.75
2023-04-07T02:44:10.241Z,5.82
2023-04-07T02:46:37.074Z,5.53
2023-04-07T02:49:03.910Z,5.85
2023-04-07T02:51:31.262Z,6.07
2023-04-07T02:53:58.170Z,5.78
2023-04-07T02:56:25.070Z,5.60
2023-04-07T02:58:51.934Z,5.45
2023-04-07T03:01:18.650Z,6.07
2023-04-07T03:03:47.772Z,5.50
2023-04-07T03:06:14.669Z,5.35
2023-04-07T03:08:42.273Z,5.65
2023-04-07T03:11:08.975Z,5.93
2023-04-07T03:13:35.876Z,5.55
2023-04-07T03:16:02.579Z,5.68
2023-04-07T03:18:29.244Z,5.10
2023-04-07T03:20:56.272Z,5.50
2023-04-07T03:23:23.957Z,5.95
2023-04-07T03:25:50.998Z,4.88
2023-04-07T03:28:17.755Z,5.30
2023-04-07T03:30:44.467Z,8.48
2023-04-07T03:33:11.228Z,6.50
2023-04-07T03:35:38.011Z,5.70
2023-04-07T03:38:04.770Z,5.68
2023-04-07T03:40:33.525Z,4.95
2023-04-07T03:43:00.418Z,6.30
2023-04-07T03:45:27.114Z,5.30
2023-04-07T03:47:54.432Z,5.07
2023-04-07T03:50:21.202Z,5.55
2023-04-07T03:52:47.930Z,4.70
2023-04-07T03:55:14.796Z,4.80
2023-04-07T03:57:41.580Z,5.15
2023-04-07T04:00:09.180Z,8.02
2023-04-07T04:02:36.550Z,9.52
2023-04-07T04:05:03.445Z,7.57
2023-04-07T04:07:32.654Z,4.65
2023-04-07T04:09:59.386Z,5.40
2023-04-07T04:12:26.032Z,5.22
2023-04-07T04:14:52.771Z,4.53
2023-04-07T04:17:19.608Z,5.63
2023-04-07T04:19:46.297Z,5.00
2023-04-07T04:22:13.017Z,5.45
2023-04-07T04:24:41.828Z,5.95
2023-04-07T04:27:08.667Z,4.90
2023-04-07T04:29:35.369Z,4.63
2023-04-07T04:32:02.044Z,6.70
2023-04-07T04:34:28.776Z,5.85
2023-04-07T04:36:55.675Z,5.57
2023-04-07T04:39:22.496Z,5.75
2023-04-07T04:41:49.168Z,5.20
2023-04-07T04:44:16.011Z,5.18
2023-04-07T04:46:42.777Z,6.20
2023-04-07T04:49:09.683Z,6.10
2023-04-07T04:51:36.427Z,5.90
2023-04-07T04:54:04.099Z,5.50
2023-04-07T04:56:30.845Z,5.10
2023-04-07T04:58:57.609Z,5.75
2023-04-07T05:01:24.373Z,5.95
2023-04-07T05:03:51.186Z,5.72
2023-04-07T05:06:18.169Z,6.13
2023-04-07T05:08:44.911Z,5.70
2023-04-07T05:11:12.157Z,6.00
2023-04-07T05:13:38.939Z,5.85
2023-04-07T05:16:06.644Z,6.37
2023-04-07T05:18:33.574Z,6.10
2023-04-07T05:21:01.916Z,6.55
2023-04-07T05:23:28.943Z,6.03
2023-04-07T05:25:55.842Z,5.80
2023-04-07T05:28:22.812Z,7.20
2023-04-07T05:30:49.483Z,5.80
2023-04-07T05:33:16.200Z,5.80
2023-04-07T05:35:45.715Z,5.40
2023-04-07T05:38:13.437Z,9.53
2023-04-07T05:40:40.809Z,6.63
2023-04-07T05:43:07.594Z,5.30
2023-04-07T05:45:34.702Z,6.10
2023-04-07T05:48:01.517Z,5.47
2023-04-07T05:50:28.317Z,5.40
2023-04-07T05:52:55.139Z,5.95
2023-04-07T05:55:21.960Z,5.47
2023-04-07T05:57:49.588Z,5.80
2023-04-07T06:00:16.726Z,5.80
2023-04-07T06:02:43.540Z,6.40
2023-04-07T06:05:10.582Z,6.50
2023-04-07T06:07:37.642Z,6.47
2023-04-07T06:10:05.001Z,6.25
2023-04-07T06:12:32.166Z,6.47
2023-04-07T06:14:59.039Z,6.67
2023-04-07T06:17:25.807Z,6.63
2023-04-07T06:19:52.547Z,6.87
2023-04-07T06:22:19.229Z,5.82
2023-04-07T06:24:46.031Z,7.90
2023-04-07T06:27:13.061Z,6.60
2023-04-07T06:29:40.041Z,7.70
2023-04-07T06:32:06.850Z,12.40
2023-04-07T06:34:33.622Z,7.30
2023-04-07T06:37:01.570Z,6.23
2023-04-07T06:39:28.790Z,6.23
2023-04-07T06:41:56.969Z,6.65
2023-04-07T06:44:24.019Z,6.03
2023-04-07T06:46:53.277Z,7.78
2023-04-07T06:49:20.652Z,6.20
2023-04-07T06:51:47.564Z,6.07
2023-04-07T06:54:17.604Z,6.77
2023-04-07T06:56:44.612Z,6.13
2023-04-07T06:59:11.413Z,6.30
2023-04-07T07:01:42.114Z,7.23
2023-04-07T07:04:09.169Z,6.53
2023-04-07T07:06:36.210Z,6.00
2023-04-07T07:09:03.367Z,6.10
2023-04-07T07:11:30.590Z,6.47
2023-04-07T07:13:57.296Z,6.40
2023-04-07T07:16:24.309Z,5.20
2023-04-07T07:18:51.552Z,7.20
2023-04-07T07:21:19.340Z,6.50
2023-04-07T07:23:46.288Z,5.77
2023-04-07T07:26:13.388Z,6.40
2023-04-07T07:28:40.133Z,6.73
2023-04-07T07:31:13.266Z,5.57
2023-04-07T07:33:41.403Z,6.07
2023-04-07T07:36:08.765Z,5.97
2023-04-07T07:38:37.531Z,7.07
2023-04-07T07:41:06.436Z,5.30
2023-04-07T07:43:33.210Z,6.00
2023-04-07T07:46:00.322Z,6.07
2023-04-07T07:48:27.117Z,6.40
2023-04-07T07:50:56.798Z,6.33
2023-04-07T07:53:23.892Z,6.13
2023-04-07T07:55:51.247Z,5.83
2023-04-07T07:58:18.057Z,5.90
2023-04-07T08:00:44.885Z,6.47
2023-04-07T08:03:11.741Z,6.03
2023-04-07T08:05:44.190Z,6.00
2023-04-07T08:08:11.197Z,5.60
2023-04-07T08:10:37.910Z,5.90
2023-04-07T08:13:05.260Z,6.20
2023-04-07T08:15:32.143Z,5.93
2023-04-07T08:18:00.294Z,6.27
2023-04-07T08:20:27.515Z,6.17
2023-04-07T08:22:54.226Z,6.00
2023-04-07T08:25:21.581Z,6.20
2023-04-07T08:27:48.353Z,6.27
2023-04-07T08:30:15.411Z,8.33
2023-04-07T08:32:44.634Z,6.80
2023-04-07T08:35:12.190Z,5.83
2023-04-07T08:37:39.820Z,5.97
2023-04-07T08:40:07.397Z,6.27
2023-04-07T08:42:40.886Z,5.30
2023-04-07T08:45:09.113Z,6.20
2023-04-07T08:47:37.462Z,6.00
2023-04-07T08:50:09.721Z,5.80
2023-04-07T08:52:46.618Z,6.20
2023-04-07T08:55:13.900Z,5.33
2023-04-07T08:57:42.263Z,5.70
2023-04-07T09:00:10.051Z,5.80
2023-04-07T09:02:39.529Z,6.00
2023-04-07T09:05:08.618Z,6.20
2023-04-07T09:07:37.530Z,5.90
2023-04-07T09:10:05.107Z,8.00
2023-04-07T09:12:33.047Z,6.10
2023-04-07T09:15:02.876Z,8.30
2023-04-07T09:17:29.900Z,5.17
2023-04-07T09:19:58.328Z,5.90
2023-04-07T09:22:42.912Z,5.90
2023-04-07T09:25:22.653Z,6.13
2023-04-07T09:28:00.334Z,6.00
2023-04-07T09:30:28.973Z,6.30
2023-04-07T09:32:56.641Z,5.73
2023-04-07T09:35:24.610Z,5.90
2023-04-07T09:38:08.608Z,5.33
2023-04-07T09:40:36.712Z,6.67
2023-04-07T09:43:07.713Z,6.20
2023-04-07T09:45:37.413Z,6.13
2023-04-07T09:48:07.123Z,6.03
2023-04-07T09:50:41.706Z,5.73
2023-04-07T09:53:08.838Z,6.20
2023-04-07T09:55:36.384Z,6.30
2023-04-07T09:58:06.554Z,6.43
2023-04-07T10:00:33.427Z,6.30
2023-04-07T10:03:01.894Z,6.73
2023-04-07T10:05:29.505Z,5.60
2023-04-07T10:07:56.734Z,5.83
2023-04-07T10:10:24.315Z,6.07
2023-04-07T10:12:54.172Z,6.30
2023-04-07T10:15:21.688Z,5.97
2023-04-07T10:17:49.346Z,6.97
2023-04-07T10:20:22.945Z,6.43
2023-04-07T10:22:52.674Z,6.50
2023-04-07T10:25:22.581Z,6.33
2023-04-07T10:27:58.262Z,4.93
2023-04-07T10:30:32.496Z,6.13
2023-04-07T10:32:59.526Z,5.27
2023-04-07T10:35:26.898Z,5.60
2023-04-07T10:38:13.628Z,6.30
2023-04-07T10:40:42.166Z,5.80
2023-04-07T10:43:11.408Z,5.67
2023-04-07T10:45:48.650Z,5.23
2023-04-07T10:48:17.293Z,5.80
2023-04-07T10:50:45.618Z,6.30
2023-04-07T10:53:14.437Z,5.63
2023-04-07T10:55:45.899Z,5.93
2023-04-07T10:58:31.542Z,6.20
2023-04-07T11:01:01.603Z,6.83
2023-04-07T11:03:30.087Z,6.17
2023-04-07T11:06:10.792Z,5.87
2023-04-07T11:08:44.794Z,6.40
2023-04-07T11:11:15.458Z,5.73
2023-04-07T11:13:47.867Z,7.07
2023-04-07T11:16:17.441Z,7.43
2023-04-07T11:18:46.544Z,5.20
2023-04-07T11:21:18.934Z,5.67
2023-04-07T11:23:47.680Z,6.23
2023-04-07T11:26:16.016Z,6.70
2023-04-07T11:28:47.731Z,6.63
2023-04-07T11:31:28.939Z,5.70
2023-04-07T11:34:01.911Z,5.87
2023-04-07T11:36:31.546Z,6.00
2023-04-07T11:38:59.129Z,6.60
2023-04-07T11:41:27.745Z,6.57
2023-04-07T11:44:08.440Z,6.23
2023-04-07T11:46:36.277Z,6.10
2023-04-07T11:49:14.537Z,6.30
2023-04-07T11:51:43.781Z,6.30
2023-04-07T11:54:11.324Z,6.93
2023-04-07T11:56:46.468Z,6.10
2023-04-07T11:59:25.354Z,6.60
2023-04-07T12:01:56.130Z,6.00
2023-04-07T12:04:24.688Z,8.67
2023-04-07T12:06:51.768Z,5.00
2023-04-07T12:09:34.792Z,5.70
2023-04-07T12:12:03.114Z,6.40
2023-04-07T12:14:29.904Z,5.10
2023-04-07T12:16:58.234Z,6.43
2023-04-07T12:19:30.886Z,10.30
2023-04-07T12:21:57.829Z,6.67
2023-04-07T12:24:25.087Z,6.20
2023-04-07T12:26:51.825Z,6.93
2023-04-07T12:29:20.516Z,7.33
2023-04-07T12:31:50.134Z,8.50
2023-04-07T12:34:17.953Z,6.67
2023-04-07T12:36:44.991Z,7.43
2023-04-07T12:39:11.778Z,7.13
2023-04-07T12:41:39.808Z,7.07
2023-04-07T12:44:06.741Z,7.67
2023-04-07T12:46:34.209Z,6.33
2023-04-07T12:49:01.244Z,7.30
2023-04-07T12:51:28.731Z,7.00
2023-04-07T12:53:55.493Z,6.73
2023-04-07T12:56:24.944Z,6.50
2023-04-07T12:58:51.732Z,7.07
2023-04-07T13:01:18.456Z,7.87
2023-04-07T13:03:45.363Z,6.37
2023-04-07T13:06:12.479Z,8.17
2023-04-07T13:08:40.482Z,6.50
2023-04-07T13:11:07.535Z,6.53
2023-04-07T13:13:34.543Z,6.23
2023-04-07T13:16:01.976Z,6.00
2023-04-07T13:18:28.849Z,6.80
2023-04-07T13:21:24.927Z,6.67
2023-04-07T13:23:44.090Z,6.23
2023-04-07T13:26:11.457Z,6.40
2023-04-07T13:28:38.868Z,7.10
2023-04-07T13:31:05.796Z,7.43
2023-04-07T13:33:32.559Z,6.60
2023-04-07T13:35:59.620Z,5.83
2023-04-07T13:38:26.582Z,6.13
2023-04-07T13:40:53.268Z,5.77
2023-04-07T13:43:20.259Z,6.13
2023-04-07T13:45:47.184Z,6.93
2023-04-07T13:48:14.746Z,9.90
2023-04-07T13:50:41.597Z,7.03
2023-04-07T13:53:08.360Z,6.87
2023-04-07T13:55:35.096Z,6.53
2023-04-07T13:58:02.085Z,6.47
2023-04-07T14:00:31.986Z,7.30
2023-04-07T14:03:00.159Z,7.13
2023-04-07T14:05:27.620Z,5.80
2023-04-07T14:07:54.541Z,6.73
2023-04-07T14:10:21.636Z,10.43
2023-04-07T14:12:49.613Z,7.73
2023-04-07T14:15:18.269Z,5.13
2023-04-07T14:17:45.409Z,6.10
2023-04-07T14:20:12.702Z,5.87
2023-04-07T14:22:39.986Z,6.63
2023-04-07T14:25:07.014Z,7.03
2023-04-07T14:27:33.819Z,6.63
2023-04-07T14:30:01.369Z,12.73
2023-04-07T14:32:33.373Z,7.63
2023-04-07T14:35:03.796Z,7.57
2023-04-07T14:37:30.659Z,7.40
2023-04-07T14:42:29.838Z,8.60
2023-04-07T14:44:56.803Z,6.90
2023-04-07T14:47:23.575Z,8.03
2023-04-07T14:49:53.178Z,9.47
2023-04-07T14:52:21.721Z,8.50
2023-04-07T14:54:48.731Z,7.40
2023-04-07T14:57:16.765Z,8.97
2023-04-07T14:59:43.946Z,7.67
2023-04-07T15:02:10.791Z,7.10
2023-04-07T15:04:37.744Z,7.03
2023-04-07T15:07:05.297Z,7.40
2023-04-07T15:09:32.079Z,6.57
2023-04-07T15:12:00.605Z,6.47
2023-04-07T15:14:27.419Z,6.83
2023-04-07T15:16:54.597Z,9.90
2023-04-07T15:19:21.334Z,6.10
2023-04-07T15:21:48.122Z,6.47
2023-04-07T15:24:16.656Z,6.67
2023-04-07T15:26:43.792Z,6.20
2023-04-07T15:29:10.695Z,5.93
2023-04-07T15:31:37.765Z,6.60
2023-04-07T15:34:05.806Z,6.83
2023-04-07T15:36:32.569Z,5.80
2023-04-07T15:39:07.206Z,5.90
2023-04-07T15:41:34.392Z,5.67
2023-04-07T15:44:02.050Z,6.10
2023-04-07T15:46:29.178Z,6.40
2023-04-07T15:48:56.034Z,5.50
2023-04-07T15:51:23.342Z,6.43
2023-04-07T15:53:50.630Z,6.77
2023-04-07T15:56:17.424Z,5.67
2023-04-07T15:58:45.415Z,6.13
2023-04-07T16:01:12.657Z,5.27
2023-04-07T16:03:39.557Z,6.20
2023-04-07T16:06:06.570Z,5.43
2023-04-07T16:08:33.343Z,4.90
2023-04-07T16:11:00.455Z,5.77
2023-04-07T16:13:27.322Z,5.03
2023-04-07T16:15:57.508Z,4.47
2023-04-07T16:18:24.412Z,5.93
2023-04-07T16:20:51.210Z,5.33
2023-04-07T16:23:18.049Z,4.43
2023-04-07T16:25:45.278Z,4.70
2023-04-07T16:28:12.006Z,4.30
2023-04-07T16:30:39.030Z,4.97
2023-04-07T16:33:05.999Z,6.17
2023-04-07T16:35:32.910Z,5.10
2023-04-07T16:38:04.698Z,4.60
2023-04-07T16:40:32.485Z,5.07
2023-04-07T16:42:59.373Z,4.80
2023-04-07T16:45:26.569Z,5.90
2023-04-07T16:47:53.328Z,5.10
2023-04-07T16:50:20.480Z,5.80
2023-04-07T16:52:47.934Z,5.67
2023-04-07T16:55:14.735Z,5.43
2023-04-07T16:57:41.505Z,5.53
2023-04-07T17:00:08.664Z,5.43
2023-04-07T17:02:35.622Z,6.37
2023-04-07T17:05:02.453Z,5.60
2023-04-07T17:07:29.176Z,5.80
2023-04-07T17:09:55.895Z,5.50
2023-04-07T17:12:22.839Z,5.30
2023-04-07T17:14:49.536Z,5.53
2023-04-07T17:17:16.495Z,5.73
2023-04-07T17:19:43.190Z,5.87
2023-04-07T17:22:09.914Z,11.40
2023-04-07T17:24:36.626Z,5.60
2023-04-07T17:27:03.345Z,5.83
2023-04-07T17:29:31.360Z,5.00
2023-04-07T17:31:58.189Z,6.17
2023-04-07T17:34:25.555Z,4.40
2023-04-07T17:36:52.402Z,5.20
2023-04-07T17:39:19.284Z,4.60
2023-04-07T17:41:47.520Z,4.20
2023-04-07T17:44:14.720Z,4.20
2023-04-07T17:46:41.540Z,6.40
2023-04-07T17:49:08.354Z,4.23
2023-04-07T17:51:35.095Z,4.20
2023-04-07T17:54:01.864Z,3.70
2023-04-07T17:56:28.845Z,3.77
2023-04-07T17:58:55.862Z,4.77
2023-04-07T18:01:22.752Z,6.30
2023-04-07T18:03:49.731Z,5.60
2023-04-07T18:06:17.962Z,5.43
2023-04-07T18:08:48.701Z,6.67
2023-04-07T18:11:16.678Z,6.00
2023-04-07T18:13:43.447Z,6.87
2023-04-07T18:16:11.765Z,8.57
2023-04-07T18:18:38.734Z,9.57
2023-04-07T18:21:07.138Z,8.30
2023-04-07T18:23:34.694Z,10.93
2023-04-07T18:26:06.460Z,13.50
2023-04-07T18:28:33.473Z,8.47
2023-04-07T18:31:06.597Z,11.23
2023-04-07T18:33:34.304Z,8.87
2023-04-07T18:36:04.176Z,10.93
2023-04-07T18:38:31.206Z,11.87
2023-04-07T18:40:58.071Z,13.83
2023-04-07T18:43:25.420Z,10.97
2023-04-07T18:45:52.834Z,10.30
2023-04-07T18:48:22.734Z,12.70
2023-04-07T18:50:52.296Z,9.50
2023-04-07T18:53:23.909Z,8.63
2023-04-07T18:55:52.746Z,8.83
2023-04-07T18:58:20.204Z,11.70
2023-04-07T19:00:50.122Z,9.93
2023-04-07T19:03:17.646Z,7.77
2023-04-07T19:05:47.514Z,7.10
2023-04-07T19:08:15.878Z,6.90
2023-04-07T19:10:43.356Z,8.60
2023-04-07T19:13:10.314Z,12.43
2023-04-07T19:15:39.223Z,7.10
2023-04-07T19:18:08.341Z,7.77
2023-04-07T19:20:35.424Z,13.70
2023-04-07T19:23:02.685Z,9.83
2023-04-07T19:25:30.928Z,8.53
2023-04-07T19:27:58.369Z,8.00
2023-04-07T19:30:25.180Z,8.23
2023-04-07T19:32:52.452Z,7.97
2023-04-07T19:35:19.508Z,7.67
2023-04-07T19:37:47.952Z,6.83
2023-04-07T19:40:15.102Z,10.53
2023-04-07T19:42:42.317Z,8.10
2023-04-07T19:45:09.630Z,6.90
2023-04-07T19:47:36.723Z,7.60
2023-04-07T19:50:04.509Z,5.33
2023-04-07T19:52:32.509Z,8.53
2023-04-07T19:55:00.997Z,7.20
2023-04-07T19:57:28.927Z,12.27
2023-04-07T19:59:55.858Z,10.13
2023-04-07T20:02:22.926Z,6.80
2023-04-07T20:04:50.217Z,7.90
2023-04-07T20:07:16.970Z,9.27
2023-04-07T20:09:43.829Z,9.37
2023-04-07T20:12:10.951Z,8.87
2023-04-07T20:14:37.804Z,7.10
2023-04-07T20:17:04.891Z,7.77
2023-04-07T20:19:31.614Z,8.13
2023-04-07T20:21:58.455Z,9.40
2023-04-07T20:24:25.872Z,7.67
2023-04-07T20:26:52.609Z,8.40
2023-04-07T20:29:21.103Z,8.63
2023-04-07T20:31:49.013Z,7.67
2023-04-07T20:34:16.365Z,6.90
2023-04-07T20:36:43.133Z,5.63
2023-04-07T20:39:09.914Z,6.33
2023-04-07T20:41:37.220Z,6.90
2023-04-07T20:44:04.313Z,6.40
2023-04-07T20:46:32.636Z,7.30
2023-04-07T20:48:59.456Z,5.83
2023-04-07T20:51:26.253Z,6.50
2023-04-07T20:53:52.950Z,6.37
2023-04-07T20:56:20.509Z,5.90
2023-04-07T20:58:48.417Z,6.47
2023-04-07T21:01:16.244Z,6.53
2023-04-07T21:03:43.665Z,6.97
2023-04-07T21:06:11.790Z,7.30
2023-04-07T21:08:39.810Z,6.53
2023-04-07T21:11:07.849Z,6.10
2023-04-07T21:13:35.024Z,6.57
2023-04-07T21:16:04.072Z,5.53
2023-04-07T21:18:31.326Z,5.00
2023-04-07T21:21:02.493Z,7.13
2023-04-07T21:23:31.574Z,6.57
2023-04-07T21:26:03.266Z,6.20
2023-04-07T21:28:30.595Z,5.77
2023-04-07T21:30:57.742Z,7.00
2023-04-07T21:33:25.296Z,6.93
2023-04-07T21:35:53.440Z,6.30
2023-04-07T21:38:20.957Z,5.70
2023-04-07T21:40:48.331Z,5.83
2023-04-07T21:43:18.389Z,7.03
2023-04-07T21:45:47.485Z,6.83
2023-04-07T21:48:16.490Z,7.97
2023-04-07T21:50:43.834Z,7.93
2023-04-07T21:53:11.135Z,7.87
2023-04-07T21:55:38.659Z,9.40
2023-04-07T21:58:05.855Z,7.70
2023-04-07T22:00:33.869Z,8.77
2023-04-07T22:03:02.352Z,10.10
2023-04-07T22:05:29.794Z,10.80
2023-04-07T22:07:58.987Z,8.37
2023-04-07T22:10:27.260Z,10.93
2023-04-07T22:12:54.465Z,8.60
2023-04-07T22:15:21.920Z,10.73
2023-04-07T22:17:49.300Z,8.60
2023-04-07T22:20:16.701Z,7.97
2023-04-07T22:22:44.473Z,10.03
2023-04-07T22:25:12.757Z,9.10
2023-04-07T22:27:39.938Z,9.33
2023-04-07T22:30:11.214Z,9.53
2023-04-07T22:32:38.759Z,9.10
2023-04-07T22:35:06.511Z,9.27
2023-04-07T22:37:33.712Z,9.70
2023-04-07T22:40:00.916Z,16.63
2023-04-07T22:42:28.524Z,8.80
2023-04-07T22:44:55.802Z,13.83
2023-04-07T22:47:23.137Z,8.70
2023-04-07T22:49:51.116Z,9.80
2023-04-07T22:52:18.700Z,9.00
2023-04-07T22:54:46.218Z,8.53
2023-04-07T22:57:13.577Z,9.10
2023-04-07T22:59:40.460Z,9.80
2023-04-07T23:02:07.561Z,10.07
2023-04-07T23:04:34.471Z,9.57
2023-04-07T23:07:01.454Z,8.97
2023-04-07T23:09:28.441Z,9.73
2023-04-07T23:11:56.952Z,8.80
2023-04-07T23:14:23.736Z,8.60
2023-04-07T23:16:51.201Z,10.07
2023-04-07T23:19:18.049Z,9.10
2023-04-07T23:21:44.970Z,8.90
2023-04-07T23:24:11.996Z,9.00
2023-04-07T23:26:38.788Z,11.50
2023-04-07T23:29:05.962Z,10.03
2023-04-07T23:31:32.745Z,9.00
2023-04-07T23:33:59.833Z,8.50
2023-04-07T23:36:27.248Z,7.77
2023-04-07T23:38:56.174Z,8.73
2023-04-07T23:41:23.623Z,7.43
2023-04-07T23:43:50.630Z,8.70
2023-04-07T23:46:17.400Z,9.20
2023-04-07T23:48:44.142Z,8.50
2023-04-07T23:51:10.809Z,8.33
2023-04-07T23:53:37.473Z,8.70
2023-04-07T23:56:04.206Z,8.10
2023-04-07T23:58:30.938Z,9.43
